»·PEaware :: N707EA NCAT-KSDM

N707EA :: NCAT-KSDM

FLIGHT INFORMATION

Flight Status: Arrived
Operator: Privately registered:
United States
More flights under this callsign
Pilot: Alan J. (5709)
Aircraft: GULFSTREAM G-1159C GULFSTREAM 4
(GLF4)
More flights by this aircraft type
Origin: NCAT Enua
Cook Islands
Destination: KSDM Brown Mun
United States
More flights between these airports :: More routes between these airports
Route: +LEMUN MEVEP B454 COMIR 13N36 17N33 21N30 25N27 HILCO G575 FICKY MZB
File this flight plan on PilotEdge
Remarks:
Altitude:
(Current/Filed)
41,000ft
Speed:
(Current/Filed)
480kts
Departed: 10-Nov-17 09:38 AM
Arrived: 10-Nov-17 10:25 AM
Distance/Time
Traveled:
3938nm/0:47
Distance/Time
To Go:
Arrived

Flight Plot

Page will automatically refresh every two minutes.

Flight plan parsing failed; only flown route is shown


Map Options




Map Legend


Flown Route
Filed Route
Departure Airport
Arrival Airport
Navaid (VOR, NDB)
Fix

Horizontal Profiles

Position Reports

Time Latitude Longitude Heading Altitude Ground
Speed
10-Nov-17 09:42 31.318619 -121.619353 35 41103ft 549kts
10-Nov-17 09:43 31.436581 -121.507227 35 41106ft 549kts
10-Nov-17 09:44 31.549959 -121.389592 53 41117ft 550kts
10-Nov-17 09:45 31.600006 -121.221694 75 41100ft 552kts
10-Nov-17 09:46 31.642712 -121.049015 74 41101ft 552kts
10-Nov-17 09:47 31.685120 -120.876785 74 41102ft 550kts
10-Nov-17 09:48 31.727104 -120.705098 74 41105ft 550kts
10-Nov-17 09:49 31.769066 -120.532356 74 41107ft 550kts
10-Nov-17 09:50 31.810499 -120.360687 74 41110ft 550kts
10-Nov-17 09:51 31.855793 -120.190601 62 41114ft 547kts
10-Nov-17 09:52 31.926259 -120.032466 61 41103ft 550kts
10-Nov-17 09:53 31.987046 -119.868070 69 41106ft 550kts
10-Nov-17 09:54 32.039331 -119.701163 69 39577ft 539kts
10-Nov-17 09:55 32.089552 -119.539967 70 36934ft 520kts
10-Nov-17 09:56 32.134260 -119.395769 69 34520ft 513kts
10-Nov-17 09:57 32.182513 -119.239261 70 31829ft 508kts
10-Nov-17 09:58 32.230036 -119.084176 70 29124ft 501kts
10-Nov-17 09:59 32.276685 -118.931156 69 26425ft 491kts
10-Nov-17 10:00 32.321695 -118.782845 69 24134ft 466kts
10-Nov-17 10:01 32.365467 -118.638234 69 24110ft 466kts
10-Nov-17 10:02 32.413203 -118.495197 51 24126ft 470kts
10-Nov-17 10:03 32.489306 -118.374311 50 22039ft 452kts
10-Nov-17 10:04 32.561646 -118.259984 51 19395ft 438kts
10-Nov-17 10:05 32.633250 -118.147206 51 16697ft 424kts
10-Nov-17 10:06 32.702877 -118.038025 51 14104ft 408kts
10-Nov-17 10:07 32.768853 -117.934631 51 13982ft 388kts
10-Nov-17 10:08 32.833175 -117.833626 50 13981ft 381kts
10-Nov-17 10:09 32.896506 -117.734037 50 13984ft 377kts
10-Nov-17 10:10 32.959244 -117.635281 50 13955ft 375kts
10-Nov-17 10:11 33.018323 -117.541929 50 12225ft 350kts
10-Nov-17 10:12 33.054833 -117.443758 100 10457ft 327kts
10-Nov-17 10:13 33.030858 -117.347479 138 8672ft 295kts
10-Nov-17 10:14 32.963589 -117.300892 151 6880ft 272kts
10-Nov-17 10:15 32.898815 -117.259550 151 5090ft 258kts
10-Nov-17 10:16 32.842628 -117.223955 151 4979ft 219kts
10-Nov-17 10:17 32.788327 -117.189358 151 4536ft 221kts
10-Nov-17 10:18 32.735976 -117.156603 150 4016ft 210kts
10-Nov-17 10:19 32.682933 -117.124130 151 3779ft 215kts
10-Nov-17 10:20 32.632121 -117.092177 150 3029ft 211kts
10-Nov-17 10:21 32.592318 -117.048822 82 3032ft 196kts
10-Nov-17 10:22 32.599587 -116.990256 78 2400ft 171kts
10-Nov-17 10:23 32.597647 -116.941078 144 1797ft 143kts
10-Nov-17 10:24 32.570261 -116.950058 278 1297ft 148kts
10-Nov-17 10:25 32.574489 -116.999495 279 1140ft 239kts
10-Nov-17 10:26 32.600865 -117.003680 89 2559ft 155kts
10-Nov-17 10:27 32.607363 -116.952294 78 2041ft 150kts
10-Nov-17 10:28 32.580674 -116.929354 214 1174ft 142kts
10-Nov-17 10:29 32.571895 -116.972119 277 545ft 135kts
10-Nov-17 10:30 32.572447 -116.993368 180 526ft 8kts
10-Nov-17 10:31 32.571794 -116.991566 95 527ft 2kts
10-Nov-17 10:32 32.571418 -116.989725 103 526ft 2kts
10-Nov-17 10:33 32.571316 -116.988495 95 523ft 9kts
10-Nov-17 10:34 32.571091 -116.985849 98 522ft 3kts
10-Nov-17 10:35 32.570332 -116.985184 154 521ft 0kts

Navigation Log

Ident Type
Flight plan parsing failed, navigation log unavailable